Huvudsida
METAR-TAF:

METAR-TAF

Flygplatser :

Luleå Airport

Luleå, Sverige

latitud: 65-33N, longitud: 022-08E, höjd: 17 m

Aktuellt väderrapport

Denna rapport gjordes för 15 minuter sedan, klockan 07:20 UTC
Vind 14 kt från väst
Temperatur 15°C
Fuktighet 51%
Tryck 995 hPa
Sikt 10 km eller mer
Få moln på en höjd av 4400 ft

METAR: ESPA 200720Z 28014KT 9999 FEW044 15/05 Q0995

Tid: 09:35 (07:35 UTC)

Väderprognos

Denna rapport gjordes för 2 timmar och 5 minuter sedan, klockan 05:30 UTC
Prognos gäller från 20 kl. 06 UTC till 20 kl. 15 UTC
Vind 15 kt från väst i byarna ända upp till 25 kt
Sikt 10 km eller mer
Inga moln under 1 500 m eller inga cumulonimbus

TAF: ESPA 200530Z 2006/2015 28015G25KT CAVOK RMK MIL

Aktuella väderrapporter och prognoser från 4000 flygplatser (METAR- och TAF-rapporter).

De tillgängliga stationerna syns som gula och röda prickar på kartan.

För musen över prickarna för att se namnen på stationerna.

Klicka sedan för att få väderrapporter och prognoser.

För att ändra kartan: Klicka på de gröna knapparna med ett svart kors på för att zooma in; den gröna knappen med ett streck på för att zooma ut; eller på de gröna pilarna för angränsande kartor.


METAR-TAF: